SHT22B EGLL-EGJB
Flight info
| Callsign | SHT22B |
|---|---|
| Flight time | 0h 34m |
| Altitude | 22000 |
| Route | GASGU2J GASGU N514 EVTES/N0387F210 N621 SAM/N0381F200 N63 LELNA LELNA1V |
| Aircraft | A319/M-SDE3FGIJ1KRWXY/LB1 |
Departure
| Time | 2026-05-06 12:20 |
|---|---|
| Airport | London Heathrow Airport (EGLL) |
Arrival
| Time | 2026-05-06 12:54 |
|---|---|
| Airport | Guernsey Airport (EGJB) |
| Time | Latitude | Longitude | Altitude | Speed | Heading |
|---|---|---|---|---|---|
| 2026-05-06 11:46 | 51.46939 | -0.47177 | 90 ft | 0 kts | 89° |
| 2026-05-06 12:12 | 51.46939 | -0.47179 | 86 ft | 2 kts | 89° |
| 2026-05-06 12:12 | 51.46939 | -0.47211 | 88 ft | 3 kts | 89° |
| 2026-05-06 12:12 | 51.46939 | -0.47243 | 86 ft | 3 kts | 89° |
| 2026-05-06 12:13 | 51.46939 | -0.47276 | 86 ft | 3 kts | 89° |
| 2026-05-06 12:13 | 51.46938 | -0.47303 | 86 ft | 3 kts | 98° |
| 2026-05-06 12:13 | 51.46944 | -0.47332 | 86 ft | 3 kts | 129° |
| 2026-05-06 12:13 | 51.46957 | -0.47349 | 88 ft | 3 kts | 171° |
| 2026-05-06 12:14 | 51.46976 | -0.47351 | 87 ft | 3 kts | 179° |
| 2026-05-06 12:14 | 51.46981 | -0.47351 | 86 ft | 0 kts | 179° |
| 2026-05-06 12:16 | 51.46977 | -0.47351 | 87 ft | 3 kts | 179° |
| 2026-05-06 12:16 | 51.46932 | -0.47351 | 90 ft | 9 kts | 179° |
| 2026-05-06 12:16 | 51.46858 | -0.47350 | 86 ft | 12 kts | 180° |
| 2026-05-06 12:16 | 51.46801 | -0.47350 | 86 ft | 13 kts | 180° |
| 2026-05-06 12:17 | 51.46744 | -0.47439 | 88 ft | 14 kts | 269° |
| 2026-05-06 12:17 | 51.46745 | -0.47608 | 86 ft | 16 kts | 270° |
| 2026-05-06 12:17 | 51.46744 | -0.47804 | 86 ft | 19 kts | 269° |
| 2026-05-06 12:17 | 51.46743 | -0.48004 | 86 ft | 13 kts | 269° |
| 2026-05-06 12:18 | 51.46743 | -0.48143 | 86 ft | 9 kts | 270° |
| 2026-05-06 12:18 | 51.46723 | -0.48204 | 87 ft | 10 kts | 214° |
| 2026-05-06 12:18 | 51.46641 | -0.48214 | 87 ft | 14 kts | 179° |
| 2026-05-06 12:18 | 51.46540 | -0.48213 | 88 ft | 14 kts | 179° |
| 2026-05-06 12:19 | 51.46485 | -0.48196 | 90 ft | 6 kts | 131° |
| 2026-05-06 12:19 | 51.46479 | -0.48085 | 87 ft | 21 kts | 89° |
| 2026-05-06 12:19 | 51.46482 | -0.47516 | 85 ft | 81 kts | 90° |
| 2026-05-06 12:19 | 51.46485 | -0.46304 | 90 ft | 135 kts | 89° |
| 2026-05-06 12:20 | 51.46491 | -0.44631 | 443 ft | 152 kts | 86° |
| 2026-05-06 12:20 | 51.46507 | -0.42943 | 1089 ft | 152 kts | 83° |
| 2026-05-06 12:20 | 51.46335 | -0.41192 | 1573 ft | 175 kts | 112° |
| 2026-05-06 12:20 | 51.45613 | -0.39454 | 1951 ft | 200 kts | 121° |
| 2026-05-06 12:21 | 51.44753 | -0.37500 | 2379 ft | 226 kts | 122° |
| 2026-05-06 12:21 | 51.43787 | -0.35333 | 2947 ft | 252 kts | 126° |
| 2026-05-06 12:21 | 51.42376 | -0.33508 | 3701 ft | 272 kts | 153° |
| 2026-05-06 12:21 | 51.40551 | -0.32784 | 4727 ft | 279 kts | 179° |
| 2026-05-06 12:22 | 51.38650 | -0.33368 | 5744 ft | 282 kts | 206° |
| 2026-05-06 12:22 | 51.37062 | -0.35172 | 6742 ft | 281 kts | 226° |
| 2026-05-06 12:22 | 51.35618 | -0.37289 | 7746 ft | 283 kts | 226° |
| 2026-05-06 12:22 | 51.34156 | -0.39432 | 8727 ft | 287 kts | 225° |
| 2026-05-06 12:23 | 51.32675 | -0.41594 | 9705 ft | 290 kts | 225° |
| 2026-05-06 12:23 | 51.31228 | -0.43875 | 10540 ft | 293 kts | 234° |
| 2026-05-06 12:23 | 51.30192 | -0.46668 | 11386 ft | 293 kts | 251° |
| 2026-05-06 12:23 | 51.29579 | -0.49821 | 11932 ft | 308 kts | 256° |
| 2026-05-06 12:24 | 51.28970 | -0.53237 | 12227 ft | 330 kts | 256° |
| 2026-05-06 12:24 | 51.28325 | -0.56826 | 12827 ft | 340 kts | 256° |
| 2026-05-06 12:24 | 51.27648 | -0.60463 | 13623 ft | 344 kts | 255° |
| 2026-05-06 12:24 | 51.26939 | -0.64124 | 14347 ft | 346 kts | 254° |
| 2026-05-06 12:25 | 51.26213 | -0.67807 | 15044 ft | 350 kts | 254° |
| 2026-05-06 12:25 | 51.25488 | -0.71476 | 15748 ft | 352 kts | 253° |
| 2026-05-06 12:25 | 51.24747 | -0.75222 | 16454 ft | 355 kts | 254° |
| 2026-05-06 12:25 | 51.24005 | -0.78997 | 17183 ft | 357 kts | 254° |
| 2026-05-06 12:26 | 51.23261 | -0.82793 | 17911 ft | 360 kts | 253° |
| 2026-05-06 12:26 | 51.22510 | -0.86630 | 18525 ft | 364 kts | 253° |
| 2026-05-06 12:26 | 51.21749 | -0.90508 | 19121 ft | 368 kts | 253° |
| 2026-05-06 12:26 | 51.20911 | -0.94374 | 19746 ft | 371 kts | 247° |
| 2026-05-06 12:27 | 51.19668 | -0.97999 | 20389 ft | 375 kts | 237° |
| 2026-05-06 12:27 | 51.18082 | -1.01334 | 20976 ft | 379 kts | 233° |
| 2026-05-06 12:27 | 51.16450 | -1.04664 | 21562 ft | 383 kts | 233° |
| 2026-05-06 12:27 | 51.14835 | -1.07967 | 21914 ft | 384 kts | 233° |
| 2026-05-06 12:28 | 51.13196 | -1.11321 | 21992 ft | 381 kts | 233° |
| 2026-05-06 12:28 | 51.11573 | -1.14643 | 21999 ft | 380 kts | 233° |
| 2026-05-06 12:28 | 51.09957 | -1.17952 | 21999 ft | 378 kts | 233° |
| 2026-05-06 12:28 | 51.08219 | -1.21088 | 21995 ft | 379 kts | 225° |
| 2026-05-06 12:29 | 51.06142 | -1.23687 | 22001 ft | 381 kts | 214° |
| 2026-05-06 12:29 | 51.03907 | -1.25950 | 22002 ft | 382 kts | 214° |
| 2026-05-06 12:29 | 51.01671 | -1.28219 | 22003 ft | 381 kts | 214° |
| 2026-05-06 12:29 | 50.99441 | -1.30491 | 22002 ft | 381 kts | 214° |
| 2026-05-06 12:30 | 50.97239 | -1.32744 | 22003 ft | 382 kts | 214° |
| 2026-05-06 12:30 | 50.94974 | -1.34949 | 22005 ft | 383 kts | 210° |
| 2026-05-06 12:30 | 50.92597 | -1.36857 | 22005 ft | 383 kts | 208° |
| 2026-05-06 12:30 | 50.90214 | -1.38756 | 22005 ft | 383 kts | 208° |
| 2026-05-06 12:31 | 50.87831 | -1.40652 | 22008 ft | 383 kts | 208° |
| 2026-05-06 12:31 | 50.85450 | -1.42547 | 22003 ft | 383 kts | 208° |
| 2026-05-06 12:31 | 50.83067 | -1.44445 | 22000 ft | 383 kts | 208° |
| 2026-05-06 12:31 | 50.80687 | -1.46341 | 21999 ft | 383 kts | 208° |
| 2026-05-06 12:32 | 50.78303 | -1.48235 | 22000 ft | 384 kts | 208° |
| 2026-05-06 12:32 | 50.75950 | -1.50102 | 21999 ft | 384 kts | 208° |
| 2026-05-06 12:32 | 50.73566 | -1.51993 | 22002 ft | 384 kts | 208° |
| 2026-05-06 12:32 | 50.71183 | -1.53884 | 22002 ft | 383 kts | 208° |
| 2026-05-06 12:33 | 50.68801 | -1.55777 | 22000 ft | 383 kts | 208° |
| 2026-05-06 12:33 | 50.66419 | -1.57668 | 22002 ft | 383 kts | 208° |
| 2026-05-06 12:33 | 50.64036 | -1.59553 | 22001 ft | 383 kts | 208° |
| 2026-05-06 12:33 | 50.61652 | -1.61434 | 21993 ft | 384 kts | 208° |
| 2026-05-06 12:34 | 50.59263 | -1.63317 | 21988 ft | 384 kts | 208° |
| 2026-05-06 12:34 | 50.56872 | -1.65197 | 21987 ft | 384 kts | 208° |
| 2026-05-06 12:34 | 50.54483 | -1.67073 | 21987 ft | 384 kts | 208° |
| 2026-05-06 12:34 | 50.52089 | -1.68948 | 21992 ft | 384 kts | 208° |
| 2026-05-06 12:35 | 50.49695 | -1.70823 | 21992 ft | 384 kts | 208° |
| 2026-05-06 12:35 | 50.47299 | -1.72696 | 21990 ft | 385 kts | 208° |
| 2026-05-06 12:35 | 50.44906 | -1.74567 | 21993 ft | 384 kts | 208° |
| 2026-05-06 12:35 | 50.42511 | -1.76437 | 21991 ft | 384 kts | 207° |
| 2026-05-06 12:36 | 50.40116 | -1.78304 | 21996 ft | 384 kts | 207° |
| 2026-05-06 12:36 | 50.37724 | -1.80168 | 21993 ft | 384 kts | 207° |
| 2026-05-06 12:36 | 50.35330 | -1.82035 | 21994 ft | 384 kts | 208° |
| 2026-05-06 12:36 | 50.32936 | -1.83900 | 21996 ft | 384 kts | 207° |
| 2026-05-06 12:37 | 50.30541 | -1.85760 | 21994 ft | 384 kts | 208° |
| 2026-05-06 12:37 | 50.28147 | -1.87615 | 21994 ft | 384 kts | 208° |
| 2026-05-06 12:37 | 50.25753 | -1.89469 | 21996 ft | 384 kts | 208° |
| 2026-05-06 12:37 | 50.23361 | -1.91320 | 22000 ft | 384 kts | 207° |
| 2026-05-06 12:38 | 50.20993 | -1.93152 | 22002 ft | 384 kts | 208° |
| 2026-05-06 12:38 | 50.18601 | -1.95004 | 22002 ft | 384 kts | 208° |
| 2026-05-06 12:38 | 50.16213 | -1.96852 | 21693 ft | 381 kts | 208° |
| 2026-05-06 12:38 | 50.13848 | -1.98679 | 21219 ft | 378 kts | 208° |
| 2026-05-06 12:39 | 50.11502 | -2.00487 | 20754 ft | 374 kts | 208° |
| 2026-05-06 12:39 | 50.09183 | -2.02267 | 20296 ft | 370 kts | 208° |
| 2026-05-06 12:39 | 50.06885 | -2.04026 | 19814 ft | 366 kts | 208° |
| 2026-05-06 12:39 | 50.04608 | -2.05765 | 19344 ft | 362 kts | 207° |
| 2026-05-06 12:40 | 50.02354 | -2.07489 | 18857 ft | 359 kts | 208° |
| 2026-05-06 12:40 | 50.00125 | -2.09211 | 18379 ft | 356 kts | 210° |
| 2026-05-06 12:40 | 49.98079 | -2.11328 | 17852 ft | 352 kts | 221° |
| 2026-05-06 12:40 | 49.96347 | -2.13959 | 17376 ft | 346 kts | 230° |
| 2026-05-06 12:41 | 49.94767 | -2.16740 | 16903 ft | 342 kts | 230° |
| 2026-05-06 12:41 | 49.93200 | -2.19485 | 16452 ft | 337 kts | 230° |
| 2026-05-06 12:41 | 49.91651 | -2.22194 | 15986 ft | 334 kts | 230° |
| 2026-05-06 12:41 | 49.90114 | -2.24876 | 15526 ft | 331 kts | 230° |
| 2026-05-06 12:42 | 49.88610 | -2.27500 | 15073 ft | 328 kts | 230° |
| 2026-05-06 12:42 | 49.87098 | -2.30139 | 14630 ft | 326 kts | 230° |
| 2026-05-06 12:42 | 49.85592 | -2.32756 | 14162 ft | 325 kts | 230° |
| 2026-05-06 12:42 | 49.84091 | -2.35359 | 13696 ft | 323 kts | 230° |
| 2026-05-06 12:43 | 49.82596 | -2.37955 | 13215 ft | 321 kts | 230° |
| 2026-05-06 12:43 | 49.81114 | -2.40529 | 12764 ft | 319 kts | 230° |
| 2026-05-06 12:43 | 49.79640 | -2.43084 | 12316 ft | 318 kts | 230° |
| 2026-05-06 12:43 | 49.78171 | -2.45630 | 11869 ft | 316 kts | 229° |
| 2026-05-06 12:44 | 49.76711 | -2.48162 | 11424 ft | 315 kts | 230° |
| 2026-05-06 12:44 | 49.75256 | -2.50681 | 10981 ft | 313 kts | 230° |
| 2026-05-06 12:44 | 49.73805 | -2.53182 | 10544 ft | 312 kts | 229° |
| 2026-05-06 12:44 | 49.72365 | -2.55657 | 10323 ft | 305 kts | 229° |
| 2026-05-06 12:45 | 49.70966 | -2.58058 | 10199 ft | 296 kts | 230° |
| 2026-05-06 12:45 | 49.69587 | -2.60350 | 10037 ft | 287 kts | 227° |
| 2026-05-06 12:45 | 49.66732 | -2.64585 | 9436 ft | 287 kts | 224° |
| 2026-05-06 12:46 | 49.65283 | -2.66662 | 8898 ft | 281 kts | 224° |
| 2026-05-06 12:46 | 49.63857 | -2.68708 | 8369 ft | 279 kts | 224° |
| 2026-05-06 12:46 | 49.62442 | -2.70753 | 7844 ft | 278 kts | 224° |
| 2026-05-06 12:46 | 49.61042 | -2.72786 | 7333 ft | 276 kts | 223° |
| 2026-05-06 12:47 | 49.59647 | -2.74811 | 6822 ft | 275 kts | 223° |
| 2026-05-06 12:47 | 49.58263 | -2.76825 | 6364 ft | 272 kts | 223° |
| 2026-05-06 12:47 | 49.56892 | -2.78822 | 5837 ft | 269 kts | 224° |
| 2026-05-06 12:47 | 49.55556 | -2.80760 | 5660 ft | 258 kts | 224° |
| 2026-05-06 12:48 | 49.54276 | -2.82615 | 5563 ft | 248 kts | 224° |
| 2026-05-06 12:48 | 49.53056 | -2.84384 | 5467 ft | 234 kts | 224° |
| 2026-05-06 12:48 | 49.51847 | -2.85971 | 5371 ft | 226 kts | 213° |
| 2026-05-06 12:48 | 49.50419 | -2.86925 | 5223 ft | 226 kts | 195° |
| 2026-05-06 12:49 | 49.48845 | -2.87120 | 4844 ft | 230 kts | 178° |
| 2026-05-06 12:49 | 49.47255 | -2.86998 | 4491 ft | 228 kts | 178° |
| 2026-05-06 12:49 | 49.45676 | -2.86887 | 4144 ft | 225 kts | 178° |
| 2026-05-06 12:49 | 49.44148 | -2.86613 | 3810 ft | 219 kts | 158° |
| 2026-05-06 12:50 | 49.43059 | -2.85127 | 3514 ft | 211 kts | 113° |
| 2026-05-06 12:50 | 49.42900 | -2.82956 | 3216 ft | 205 kts | 81° |
| 2026-05-06 12:50 | 49.43054 | -2.80796 | 2908 ft | 200 kts | 85° |
| 2026-05-06 12:50 | 49.43102 | -2.78715 | 2664 ft | 191 kts | 88° |
| 2026-05-06 12:51 | 49.43129 | -2.76729 | 2354 ft | 186 kts | 88° |
| 2026-05-06 12:51 | 49.43159 | -2.74771 | 2078 ft | 177 kts | 88° |
| 2026-05-06 12:51 | 49.43192 | -2.72982 | 1851 ft | 156 kts | 88° |
| 2026-05-06 12:51 | 49.43224 | -2.71420 | 1640 ft | 139 kts | 88° |
| 2026-05-06 12:52 | 49.43256 | -2.69971 | 1459 ft | 133 kts | 88° |
| 2026-05-06 12:52 | 49.43288 | -2.68563 | 1275 ft | 131 kts | 87° |
| 2026-05-06 12:52 | 49.43323 | -2.67178 | 1112 ft | 128 kts | 86° |
| 2026-05-06 12:52 | 49.43363 | -2.65820 | 955 ft | 127 kts | 86° |
| 2026-05-06 12:53 | 49.43400 | -2.64469 | 762 ft | 126 kts | 86° |
| 2026-05-06 12:53 | 49.43420 | -2.63132 | 580 ft | 124 kts | 86° |
| 2026-05-06 12:53 | 49.43453 | -2.61812 | 392 ft | 123 kts | 86° |
| 2026-05-06 12:53 | 49.43486 | -2.60556 | 308 ft | 103 kts | 89° |
| 2026-05-06 12:54 | 49.43509 | -2.59715 | 328 ft | 58 kts | 88° |
| 2026-05-06 12:54 | 49.43518 | -2.59370 | 335 ft | 20 kts | 87° |
| 2026-05-06 12:54 | 49.43511 | -2.59217 | 331 ft | 12 kts | 129° |
| 2026-05-06 12:54 | 49.43424 | -2.59196 | 334 ft | 12 kts | 180° |
| 2026-05-06 12:55 | 49.43372 | -2.59278 | 334 ft | 13 kts | 264° |
| 2026-05-06 12:55 | 49.43367 | -2.59435 | 329 ft | 17 kts | 267° |
| 2026-05-06 12:55 | 49.43363 | -2.59593 | 330 ft | 6 kts | 267° |
| 2026-05-06 12:55 | 49.43326 | -2.59624 | 330 ft | 8 kts | 178° |
| 2026-05-06 12:56 | 49.43272 | -2.59621 | 329 ft | 4 kts | 178° |
| 2026-05-06 12:56 | 49.43256 | -2.59621 | 328 ft | 1 kts | 178° |
| 2026-05-06 12:56 | 49.43253 | -2.59620 | 328 ft | 0 kts | 178° |